Time;durP1;ratioP1;P1;durP2;ratioP2;P2;SDS_P1;SDS_P2;PMS_P1;PMS_P2;Temp;Humidity;BMP_temperature;BMP_pressure;BME280_temperature;BME280_humidity;BME280_pressure;Samples;Min_cycle;Max_cycle;Signal;HPM_P1;HPM_P2
2020/12/03 00:00:22;;;;;;;26.37;15.07;;;;;;;2.33;76.06;101389.00;5029585;28;20025;-72
2020/12/03 00:02:47;;;;;;;33.07;18.20;;;;;;;2.26;76.30;101374.88;5030311;28;20029;-66
2020/12/03 00:05:13;;;;;;;28.03;16.07;;;;;;;2.43;75.75;101387.38;5029538;28;20087;-69
2020/12/03 00:07:38;;;;;;;23.50;14.07;;;;;;;2.21;75.87;101337.94;5019947;28;20088;-65
2020/12/03 00:10:04;;;;;;;23.30;14.43;;;;;;;2.44;75.52;101383.16;5027672;28;20038;-70
2020/12/03 00:12:29;;;;;;;28.40;16.23;;;;;;;2.46;75.53;101374.00;5031564;28;20061;-65
2020/12/03 00:14:55;;;;;;;34.33;19.13;;;;;;;2.52;75.01;101376.19;5031424;28;20025;-69
2020/12/03 00:17:20;;;;;;;28.10;15.73;;;;;;;2.59;75.26;101381.00;5046728;28;20025;-68
2020/12/03 00:19:46;;;;;;;28.27;16.50;;;;;;;2.54;75.29;101388.28;5032076;28;20024;-69
2020/12/03 00:22:11;;;;;;;29.60;16.00;;;;;;;2.43;75.70;101361.91;5031793;28;20013;-66
2020/12/03 00:24:36;;;;;;;26.03;16.13;;;;;;;2.50;75.28;101372.59;5031834;28;20026;-68
2020/12/03 00:27:10;;;;;;;26.23;15.53;;;;;;;2.43;76.00;101381.41;5032173;28;20086;-67
2020/12/03 00:29:36;;;;;;;23.17;14.53;;;;;;;2.57;75.89;101400.41;5031673;28;20041;-66
2020/12/03 00:32:02;;;;;;;22.67;15.33;;;;;;;2.41;75.56;101378.69;5031709;28;20481;-72
2020/12/03 00:34:28;;;;;;;25.40;14.83;;;;;;;2.64;75.37;101405.25;5031717;28;20025;-68
2020/12/03 00:36:54;;;;;;;22.00;13.73;;;;;;;2.63;75.25;101394.91;5031800;28;20029;-67
2020/12/03 00:39:20;;;;;;;24.30;14.20;;;;;;;2.59;75.42;101388.66;5031432;28;20112;-70
2020/12/03 00:41:49;;;;;;;22.57;14.20;;;;;;;2.71;75.32;101402.44;5031778;28;20036;-68
2020/12/03 00:44:17;;;;;;;23.23;14.40;;;;;;;2.74;75.38;101405.25;5030917;28;20151;-66
2020/12/03 00:46:43;;;;;;;25.23;15.93;;;;;;;2.63;75.36;101390.72;5031811;28;20056;-69
2020/12/03 00:49:08;;;;;;;25.43;15.37;;;;;;;2.70;75.27;101395.53;5031240;28;20029;-67
2020/12/03 00:51:34;;;;;;;24.90;15.53;;;;;;;2.85;75.03;101397.59;5031671;28;20492;-68
2020/12/03 00:53:59;;;;;;;24.07;15.93;;;;;;;2.83;74.51;101399.13;5031415;28;20025;-68
2020/12/03 00:56:25;;;;;;;23.70;14.67;;;;;;;2.76;74.53;101395.19;5031560;28;20029;-66
2020/12/03 00:58:50;;;;;;;22.97;14.80;;;;;;;2.78;75.08;101403.84;5031318;28;20029;-65
2020/12/03 01:01:18;;;;;;;23.47;14.73;;;;;;;2.62;74.32;101396.56;5031646;28;20469;-65
2020/12/03 01:03:44;;;;;;;21.67;14.63;;;;;;;2.57;74.08;101386.00;5030914;28;20037;-65
2020/12/03 01:06:10;;;;;;;22.27;13.53;;;;;;;2.62;73.64;101388.03;5031079;28;20095;-67
2020/12/03 01:08:36;;;;;;;23.70;14.27;;;;;;;2.51;73.75;101402.44;5031299;28;20087;-70
2020/12/03 01:11:01;;;;;;;19.57;13.83;;;;;;;2.39;73.64;101404.81;5046359;28;20021;-70
2020/12/03 01:13:27;;;;;;;21.93;14.23;;;;;;;2.37;73.69;101404.69;5030672;28;20040;-71
2020/12/03 01:15:53;;;;;;;21.37;14.07;;;;;;;2.42;73.64;101400.88;5030669;28;20087;-67
2020/12/03 01:18:18;;;;;;;28.17;16.43;;;;;;;2.17;73.60;101366.44;5031187;28;20029;-72
2020/12/03 01:20:44;;;;;;;21.20;14.83;;;;;;;2.12;73.69;101383.88;5031298;28;20076;-67
2020/12/03 01:23:10;;;;;;;26.00;17.03;;;;;;;2.13;74.06;101394.97;5030760;28;20167;-71
2020/12/03 01:25:35;;;;;;;23.37;14.90;;;;;;;2.08;74.26;101390.38;5029783;28;20502;-70
2020/12/03 01:28:01;;;;;;;23.50;15.23;;;;;;;2.18;74.08;101399.69;5030573;28;20029;-68
2020/12/03 01:30:27;;;;;;;26.23;16.70;;;;;;;2.15;73.96;101396.88;5030840;28;20034;-68
2020/12/03 01:32:52;;;;;;;24.17;16.07;;;;;;;2.02;73.99;101381.28;5031035;28;20021;-69
2020/12/03 01:35:19;;;;;;;27.53;16.93;;;;;;;2.08;73.84;101387.81;5030653;28;20413;-67
2020/12/03 01:37:47;;;;;;;26.50;15.47;;;;;;;1.84;73.55;101350.06;5030731;28;20045;-65
2020/12/03 01:40:15;;;;;;;23.73;16.40;;;;;;;1.97;74.27;101391.13;5030840;28;20489;-66
2020/12/03 01:42:41;;;;;;;23.63;15.53;;;;;;;1.77;73.77;101349.53;5030163;28;20013;-68
2020/12/03 01:45:46;;;;;;;24.10;16.00;;;;;;;2.06;73.90;101384.25;5030703;28;20488;-69
2020/12/03 01:48:35;;;;;;;26.33;16.00;;;;;;;2.02;73.62;101389.84;5029542;28;20410;-67
2020/12/03 01:51:05;;;;;;;26.67;16.77;;;;;;;2.02;73.83;101383.84;5030188;28;20045;-65
2020/12/03 01:53:30;;;;;;;25.92;16.42;;;;;;;1.71;73.73;101336.28;5030756;28;20044;-70
2020/12/03 01:55:57;;;;;;;25.00;16.70;;;;;;;1.88;74.00;101380.09;5030568;28;20638;-71
2020/12/03 01:58:31;;;;;;;25.40;16.60;;;;;;;1.69;74.27;101392.91;5034512;28;20021;-66
2020/12/03 02:00:57;;;;;;;25.03;16.67;;;;;;;1.70;74.45;101389.59;5034788;28;20033;-68
2020/12/03 02:03:22;;;;;;;28.60;16.23;;;;;;;1.59;73.70;101363.22;5065408;28;20044;-67
2020/12/03 02:05:48;;;;;;;26.13;17.53;;;;;;;1.68;73.49;101386.03;5034474;28;20499;-69
2020/12/03 02:08:13;;;;;;;26.53;16.43;;;;;;;1.72;73.69;101388.06;5034641;28;20084;-66
2020/12/03 02:10:39;;;;;;;28.50;16.27;;;;;;;1.61;73.79;101380.41;5034524;28;20033;-65
2020/12/03 02:13:04;;;;;;;24.87;16.40;;;;;;;1.43;74.04;101379.69;5034429;28;20021;-70
2020/12/03 02:15:30;;;;;;;28.80;16.97;;;;;;;1.33;74.57;101377.06;5034359;28;20099;-66
2020/12/03 02:17:55;;;;;;;27.53;17.20;;;;;;;1.03;74.54;101337.09;5034057;28;20051;-65
2020/12/03 02:20:21;;;;;;;31.73;18.37;;;;;;;1.06;75.01;101363.69;5034014;28;20030;-68
2020/12/03 02:22:47;;;;;;;27.57;17.00;;;;;;;1.09;75.10;101379.22;5034694;28;20026;-66
2020/12/03 02:25:14;;;;;;;28.40;17.03;;;;;;;0.98;75.17;101381.56;5049433;28;20408;-69
2020/12/03 02:27:41;;;;;;;27.73;18.03;;;;;;;1.01;75.08;101381.81;5033946;28;20026;-65
2020/12/03 02:30:09;;;;;;;25.10;16.80;;;;;;;1.11;75.21;101387.00;5033941;28;20497;-68
2020/12/03 02:32:34;;;;;;;26.30;17.13;;;;;;;1.00;75.00;101388.56;5033587;28;20033;-70
2020/12/03 02:35:00;;;;;;;25.90;16.27;;;;;;;0.95;74.74;101375.44;5034226;28;20033;-67
2020/12/03 02:37:28;;;;;;;25.03;17.10;;;;;;;0.93;74.83;101376.94;5071230;28;20048;-65
2020/12/03 02:39:54;;;;;;;24.93;16.43;;;;;;;0.93;75.05;101374.41;5071430;28;20559;-66
2020/12/03 02:42:20;;;;;;;28.57;17.60;;;;;;;0.94;74.70;101377.84;5071323;28;20128;-68
2020/12/03 02:44:48;;;;;;;27.57;16.30;;;;;;;0.87;74.33;101367.88;5071612;28;20043;-67
2020/12/03 02:47:16;;;;;;;25.80;15.93;;;;;;;0.86;74.62;101382.25;5070920;28;20055;-67
2020/12/03 02:49:42;;;;;;;25.23;15.73;;;;;;;0.61;74.38;101339.34;5071218;28;20651;-67
2020/12/03 02:52:22;;;;;;;24.93;15.80;;;;;;;0.78;74.48;101368.81;5071071;28;20123;-69
2020/12/03 02:54:49;;;;;;;22.20;14.73;;;;;;;0.78;74.34;101366.28;5071201;28;20032;-67
2020/12/03 02:57:15;;;;;;;23.30;15.40;;;;;;;0.83;74.16;101366.69;5071220;28;20036;-66
2020/12/03 02:59:41;;;;;;;22.90;14.30;;;;;;;0.46;73.53;101300.75;5070721;28;20454;-63
2020/12/03 03:02:06;;;;;;;24.63;14.57;;;;;;;0.90;73.31;101368.16;5070819;28;20093;-67
2020/12/03 03:04:32;;;;;;;25.33;16.13;;;;;;;0.89;73.68;101381.63;5070975;28;20036;-65
2020/12/03 03:06:57;;;;;;;23.63;14.17;;;;;;;0.48;73.51;101329.69;5070759;28;20131;-64
2020/12/03 03:09:23;;;;;;;23.73;15.27;;;;;;;0.70;73.82;101361.25;5035349;28;20061;-65
2020/12/03 03:11:49;;;;;;;25.97;15.57;;;;;;;0.70;73.85;101368.88;5033154;28;20033;-68
2020/12/03 03:14:15;;;;;;;24.03;15.13;;;;;;;0.43;73.35;101320.78;5033139;28;20065;-64
2020/12/03 03:16:41;;;;;;;23.43;14.77;;;;;;;0.20;73.59;101274.59;5033053;28;20029;-65
2020/12/03 03:19:07;;;;;;;22.83;13.80;;;;;;;0.72;72.76;101367.38;5033206;28;20033;-67
2020/12/03 03:21:32;;;;;;;25.03;15.37;;;;;;;0.70;72.80;101379.03;5033254;28;20129;-64
2020/12/03 03:23:58;;;;;;;25.40;13.50;;;;;;;0.65;73.38;101383.72;5033285;28;20026;-69
2020/12/03 03:26:24;;;;;;;23.03;14.23;;;;;;;0.32;72.75;101306.19;5032838;28;20142;-65
2020/12/03 03:28:51;;;;;;;21.37;13.73;;;;;;;0.55;73.08;101373.44;5032526;28;20148;-69
2020/12/03 03:31:18;;;;;;;23.57;14.00;;;;;;;0.58;73.10;101373.75;5032834;28;20497;-67
2020/12/03 03:33:43;;;;;;;20.37;13.33;;;;;;;0.59;73.20;101368.81;5030601;28;20489;-67
2020/12/03 03:36:09;;;;;;;22.17;13.43;;;;;;;0.20;73.97;101372.00;5032848;28;20029;-71
2020/12/03 03:38:34;;;;;;;22.60;13.93;;;;;;;-0.26;75.10;101332.16;5032600;28;20400;-67
2020/12/03 03:40:59;;;;;;;26.60;14.80;;;;;;;-0.01;75.38;101370.91;5032421;28;20018;-69
2020/12/03 03:43:25;;;;;;;23.33;14.30;;;;;;;-0.09;75.86;101356.59;5031144;28;20443;-72
2020/12/03 03:45:51;;;;;;;24.93;14.97;;;;;;;-0.08;76.56;101361.78;5031981;28;20390;-68
2020/12/03 03:48:16;;;;;;;25.37;15.97;;;;;;;0.02;76.92;101378.78;5031631;28;20025;-66
2020/12/03 03:50:42;;;;;;;27.27;16.23;;;;;;;0.17;77.10;101373.38;5031938;28;20025;-66
2020/12/03 03:53:07;;;;;;;26.73;17.33;;;;;;;0.26;76.15;101366.59;5031464;28;20017;-66
2020/12/03 03:55:32;;;;;;;26.80;16.30;;;;;;;0.37;76.27;101376.09;5031779;28;20072;-66
2020/12/03 03:57:58;;;;;;;31.27;17.30;;;;;;;0.37;76.33;101371.00;5030506;28;20017;-69
2020/12/03 04:00:24;;;;;;;27.97;16.47;;;;;;;0.45;75.56;101374.28;5032136;28;20451;-66
2020/12/03 04:02:50;;;;;;;29.73;15.40;;;;;;;0.46;75.31;101359.19;5031897;28;20032;-69
2020/12/03 04:05:16;;;;;;;26.40;16.40;;;;;;;0.59;75.29;101365.38;5032134;28;20064;-66
2020/12/03 04:07:45;;;;;;;32.00;17.13;;;;;;;0.63;74.71;101369.97;5032009;28;20045;-64
2020/12/03 04:10:11;;;;;;;28.40;16.37;;;;;;;0.53;74.48;101360.63;5032297;28;20033;-68
2020/12/03 04:12:39;;;;;;;30.33;15.93;;;;;;;0.54;74.64;101354.78;5031476;28;20054;-65
2020/12/03 04:15:06;;;;;;;26.97;15.77;;;;;;;0.74;73.91;101368.44;5032162;28;20021;-66
2020/12/03 04:17:36;;;;;;;29.73;16.90;;;;;;;0.61;74.02;101341.91;5032064;28;20025;-69
2020/12/03 04:20:02;;;;;;;26.08;14.82;;;;;;;0.69;74.09;101373.09;5031565;28;20053;-67
2020/12/03 04:22:28;;;;;;;30.63;16.00;;;;;;;0.46;74.73;101365.88;5032406;28;20033;-65
2020/12/03 04:24:53;;;;;;;25.23;14.87;;;;;;;0.60;74.06;101374.81;5031338;28;20412;-65
2020/12/03 04:27:20;;;;;;;26.53;14.70;;;;;;;0.63;73.39;101363.22;5031426;28;20030;-66
2020/12/03 04:29:45;;;;;;;27.70;15.10;;;;;;;0.70;73.40;101379.97;5031443;28;20120;-66
2020/12/03 04:32:11;;;;;;;25.90;15.23;;;;;;;0.75;73.40;101366.00;5031869;28;20545;-65
2020/12/03 04:34:36;;;;;;;31.17;17.00;;;;;;;0.60;73.83;101352.81;5032042;28;20029;-69
2020/12/03 04:37:02;;;;;;;35.60;17.70;;;;;;;0.66;74.22;101365.19;5031513;28;20098;-66
2020/12/03 04:39:27;;;;;;;38.40;18.70;;;;;;;0.67;74.40;101361.88;5031751;28;20507;-69
2020/12/03 04:41:53;;;;;;;40.00;22.07;;;;;;;0.72;74.65;101372.47;5031138;28;20026;-66
2020/12/03 04:44:24;;;;;;;37.33;17.93;;;;;;;0.79;74.50;101364.66;5031892;28;20401;-69
2020/12/03 04:47:11;;;;;;;35.97;19.07;;;;;;;0.86;74.19;101361.00;5031737;28;20029;-67
2020/12/03 04:49:48;;;;;;;37.47;17.90;;;;;;;0.86;74.00;101355.91;5031558;28;20064;-66
2020/12/03 04:52:32;;;;;;;36.23;19.70;;;;;;;0.34;73.51;101269.16;5031214;28;20060;-70
2020/12/03 04:55:37;;;;;;;33.67;16.83;;;;;;;0.84;73.94;101363.41;5031426;28;20061;-67
2020/12/03 04:58:29;;;;;;;32.67;17.13;;;;;;;0.86;74.04;101366.09;5048682;28;20035;-65
2020/12/03 05:01:08;;;;;;;32.73;18.90;;;;;;;0.90;73.62;101373.25;5009036;28;20606;-66
2020/12/03 05:03:56;;;;;;;35.28;17.65;;;;;;;0.87;73.89;101367.88;5009259;28;20489;-65
2020/12/03 05:06:36;;;;;;;29.93;16.67;;;;;;;0.61;73.92;101339.34;5008854;28;20127;-66
2020/12/03 05:09:04;;;;;;;30.47;16.00;;;;;;;0.86;73.75;101378.78;5008975;28;20046;-70
2020/12/03 05:11:36;;;;;;;26.77;15.57;;;;;;;0.84;73.55;101381.19;5009013;28;20054;-65
2020/12/03 05:14:11;;;;;;;27.40;16.13;;;;;;;0.85;73.21;101379.53;5009104;28;20053;-68
2020/12/03 05:16:52;;;;;;;27.30;15.53;;;;;;;0.73;73.24;101367.50;5009067;28;20193;-70
2020/12/03 05:19:32;;;;;;;23.97;14.57;;;;;;;0.82;72.85;101367.44;5008675;28;20112;-68
2020/12/03 05:21:58;;;;;;;25.50;15.03;;;;;;;0.90;72.99;101376.69;5008842;28;20029;-67
2020/12/03 05:24:23;;;;;;;25.70;15.20;;;;;;;0.89;72.88;101385.06;5008944;28;20181;-66
2020/12/03 05:26:49;;;;;;;25.90;15.30;;;;;;;0.90;72.48;101375.78;5008771;28;20045;-67
2020/12/03 05:29:14;;;;;;;27.00;15.17;;;;;;;0.89;72.62;101379.97;5008997;28;20030;-65
2020/12/03 05:31:43;;;;;;;30.50;15.20;;;;;;;0.80;72.85;101385.13;5007957;28;20115;-68
2020/12/03 05:34:18;;;;;;;27.80;15.07;;;;;;;0.87;72.91;101391.63;4980979;28;20053;-66
2020/12/03 05:36:53;;;;;;;26.57;14.60;;;;;;;0.89;72.79;101389.25;4975843;28;20034;-68
2020/12/03 05:39:26;;;;;;;26.17;13.60;;;;;;;0.80;72.62;101386.78;5030942;28;20033;-67
2020/12/03 05:41:58;;;;;;;28.90;15.87;;;;;;;0.76;73.15;101388.13;5031187;28;20033;-67
2020/12/03 05:44:40;;;;;;;29.30;15.00;;;;;;;0.71;73.34;101389.38;5030095;28;20397;-65
2020/12/03 05:47:21;;;;;;;31.83;16.00;;;;;;;0.70;73.42;101396.84;5030493;28;20036;-66
2020/12/03 05:49:48;;;;;;;29.20;15.47;;;;;;;0.63;73.56;101390.31;5030558;28;20029;-68
2020/12/03 05:52:21;;;;;;;28.33;15.60;;;;;;;0.69;73.77;101398.50;5031075;28;20463;-71
2020/12/03 05:55:07;;;;;;;38.03;23.47;;;;;;;0.31;74.46;101355.22;5030633;28;20033;-65
2020/12/03 05:57:51;;;;;;;36.63;17.17;;;;;;;0.53;74.51;101397.84;5030602;28;20103;-66
2020/12/03 06:00:26;;;;;;;37.10;19.60;;;;;;;0.43;74.46;101375.78;5030835;28;20017;-70
2020/12/03 06:03:26;;;;;;;32.60;18.20;;;;;;;0.57;74.63;101400.78;5030424;28;20029;-66
2020/12/03 06:06:16;;;;;;;35.37;17.40;;;;;;;0.41;74.32;101362.94;5030705;28;20037;-69
2020/12/03 06:09:00;;;;;;;;;;;;;;;0.59;74.98;101400.97;5031055;28;20042;-65
2020/12/03 06:12:18;;;;;;;36.17;16.97;;;;;;;0.48;75.04;101398.28;5030268;28;19913;-67
2020/12/03 06:14:59;;;;;;;37.40;17.83;;;;;;;0.36;74.99;101381.91;5027767;28;20041;-69
2020/12/03 06:18:06;;;;;;;39.47;21.27;;;;;;;0.47;74.91;101409.25;5026724;28;20037;-70
2020/12/03 06:21:09;;;;;;;36.60;19.57;;;;;;;0.33;75.60;101384.19;4969809;28;20505;-70
2020/12/03 06:24:12;;;;;;;37.27;19.43;;;;;;;0.61;75.41;101409.59;4893521;29;20127;-66
2020/12/03 06:27:11;;;;;;;30.90;17.20;;;;;;;0.68;74.96;101409.41;4893314;29;20041;-70
2020/12/03 06:29:55;;;;;;;38.50;19.15;;;;;;;0.68;75.40;101409.41;4893399;29;20044;-71
2020/12/03 06:32:42;;;;;;;33.30;17.93;;;;;;;0.64;74.67;101403.16;4893395;29;20052;-67
2020/12/03 06:35:32;;;;;;;33.77;16.87;;;;;;;0.45;75.63;101398.03;4892851;29;20092;-68
2020/12/03 06:38:25;;;;;;;32.23;18.73;;;;;;;0.48;76.47;101407.59;4887556;29;20440;-66
2020/12/03 06:41:32;;;;;;;36.33;18.53;;;;;;;0.61;76.00;101401.97;4884800;29;20113;-66
2020/12/03 06:44:14;;;;;;;33.70;18.87;;;;;;;0.61;75.85;101410.50;4864415;29;20041;-69
2020/12/03 06:47:08;;;;;;;31.97;17.20;;;;;;;0.55;76.05;101412.47;4896238;29;20036;-69
2020/12/03 06:49:42;;;;;;;37.50;18.97;;;;;;;0.54;76.34;101417.44;4873781;29;20073;-66
2020/12/03 06:52:30;;;;;;;39.93;21.10;;;;;;;0.57;76.42;101410.06;4874017;29;20037;-69
2020/12/03 06:54:58;;;;;;;35.37;20.00;;;;;;;0.64;76.16;101409.88;4895504;29;20052;-69
2020/12/03 06:57:50;;;;;;;39.57;20.47;;;;;;;0.67;76.24;101402.53;4917542;29;20106;-68
2020/12/03 07:00:27;;;;;;;32.33;19.40;;;;;;;0.75;75.92;101406.69;5026965;28;20048;-70
2020/12/03 07:03:14;;;;;;;36.00;19.20;;;;;;;0.73;75.88;101410.72;5032907;28;20163;-69
2020/12/03 07:06:02;;;;;;;31.70;17.83;;;;;;;0.68;76.05;101409.41;5030815;28;20026;-70
2020/12/03 07:08:55;;;;;;;32.27;18.10;;;;;;;0.65;76.25;101409.16;5033089;28;20116;-68
2020/12/03 07:11:52;;;;;;;35.83;19.83;;;;;;;0.58;76.89;101404.25;5032649;28;20118;-69
2020/12/03 07:14:53;;;;;;;37.80;21.03;;;;;;;0.55;77.46;101406.50;5032804;28;20018;-69
2020/12/03 07:17:56;;;;;;;33.93;18.70;;;;;;;0.73;77.66;101399.69;5030011;28;20120;-67
2020/12/03 07:20:43;;;;;;;33.90;18.63;;;;;;;0.91;76.35;101405.53;5030051;28;20420;-68
2020/12/03 07:23:27;;;;;;;35.70;19.13;;;;;;;0.94;76.33;101398.19;5030285;28;20037;-69
2020/12/03 07:25:53;;;;;;;35.53;19.60;;;;;;;0.93;76.64;101407.44;5030262;28;20028;-69
2020/12/03 07:28:23;;;;;;;38.30;20.70;;;;;;;1.04;76.29;101399.91;5029907;28;20029;-70
2020/12/03 07:30:57;;;;;;;35.90;19.43;;;;;;;0.91;76.96;101408.97;5030173;28;20492;-67
2020/12/03 07:33:56;;;;;;;38.50;21.97;;;;;;;0.73;78.91;101407.28;5029478;28;20049;-69
2020/12/03 07:36:44;;;;;;;37.90;22.13;;;;;;;0.61;79.03;101397.81;5026467;28;20033;-70
2020/12/03 07:39:20;;;;;;;40.90;22.77;;;;;;;0.75;80.02;101393.97;5044763;28;20033;-67
2020/12/03 07:41:56;;;;;;;37.83;22.93;;;;;;;0.96;78.75;101394.16;5013271;28;20143;-70
2020/12/03 07:44:45;;;;;;;39.77;23.13;;;;;;;1.11;77.85;101407.34;5028823;28;20052;-68
2020/12/03 07:47:18;;;;;;;40.40;22.17;;;;;;;1.02;77.89;101421.75;5027794;28;20029;-72
2020/12/03 07:49:49;;;;;;;40.53;26.53;;;;;;;0.89;78.76;101412.13;5030846;28;20480;-72
2020/12/03 07:52:25;;;;;;;39.90;24.37;;;;;;;0.84;79.34;101403.19;5031413;28;20027;-68
2020/12/03 07:54:51;;;;;;;38.90;22.30;;;;;;;1.11;78.45;101418.41;5029685;28;20497;-70
2020/12/03 07:57:38;;;;;;;38.43;21.70;;;;;;;1.22;78.11;101426.09;5030540;28;20092;-71
2020/12/03 08:00:26;;;;;;;34.80;20.50;;;;;;;1.48;77.12;101425.00;5031463;28;20022;-70
2020/12/03 08:03:02;;;;;;;37.77;20.67;;;;;;;1.35;77.65;101423.91;5029446;28;20417;-70
2020/12/03 08:05:59;;;;;;;34.67;21.33;;;;;;;1.57;77.10;101430.88;5030609;28;20036;-70
2020/12/03 08:08:28;;;;;;;37.27;22.33;;;;;;;1.70;77.54;101433.75;5028111;28;20057;-70
2020/12/03 08:10:54;;;;;;;41.65;23.83;;;;;;;1.77;76.79;101428.47;5028156;28;20049;-70
2020/12/03 08:13:42;;;;;;;35.40;22.13;;;;;;;1.83;75.97;101430.63;5028443;28;20609;-70
2020/12/03 08:16:30;;;;;;;40.57;22.90;;;;;;;1.76;76.03;101426.66;5027512;28;20140;-71
2020/12/03 08:19:17;;;;;;;39.10;23.10;;;;;;;1.94;76.27;101422.31;5027983;28;20053;-70
2020/12/03 08:21:43;;;;;;;38.23;23.83;;;;;;;2.03;75.58;101409.47;5029284;28;20061;-70
2020/12/03 08:24:23;;;;;;;37.10;23.93;;;;;;;2.18;75.62;101415.00;5029085;28;20064;-71
2020/12/03 08:26:54;;;;;;;39.87;24.93;;;;;;;2.30;74.64;101414.25;5028722;28;20059;-70
2020/12/03 08:29:43;;;;;;;38.03;22.13;;;;;;;2.34;74.85;101414.63;5029250;28;20109;-70
2020/12/03 08:32:08;;;;;;;42.73;26.47;;;;;;;2.46;74.97;101408.81;5009697;28;20501;-72
2020/12/03 08:34:35;;;;;;;30.50;19.90;;;;;;;2.55;74.32;101407.00;5009357;28;20132;-68
2020/12/03 08:37:02;;;;;;;34.63;20.20;;;;;;;2.71;73.68;101412.63;5009249;28;20045;-67
2020/12/03 08:39:28;;;;;;;31.33;20.47;;;;;;;2.79;72.74;101408.19;5023206;28;20039;-73
2020/12/03 08:41:55;;;;;;;27.97;18.90;;;;;;;2.84;72.80;101406.00;4993098;28;20048;-69
2020/12/03 08:44:21;;;;;;;26.20;14.47;;;;;;;2.76;71.53;101382.41;5007879;28;20038;-68
2020/12/03 08:46:49;;;;;;;25.37;15.93;;;;;;;2.84;72.27;101390.69;4990258;28;20100;-66
2020/12/03 08:49:20;;;;;;;28.30;16.40;;;;;;;2.49;74.15;101386.09;4990077;28;20066;-70
2020/12/03 08:51:53;;;;;;;23.50;14.77;;;;;;;2.29;74.84;101384.44;4990107;28;20177;-70
2020/12/03 08:54:26;;;;;;;23.77;16.20;;;;;;;2.33;74.85;101372.09;4990554;28;20038;-68
2020/12/03 08:56:56;;;;;;;24.90;14.77;;;;;;;2.50;73.25;101380.25;4990430;28;20092;-67
2020/12/03 08:59:28;;;;;;;24.87;14.80;;;;;;;2.49;72.63;101366.59;4990334;28;20054;-71
2020/12/03 09:02:11;;;;;;;22.97;15.10;;;;;;;2.52;72.66;101368.53;4990340;28;20046;-66
2020/12/03 09:04:42;;;;;;;22.63;14.07;;;;;;;2.56;72.65;101370.56;4990436;28;20108;-68
2020/12/03 09:07:12;;;;;;;22.53;14.90;;;;;;;2.28;73.36;101375.91;4989335;28;20152;-66
2020/12/03 09:09:42;;;;;;;22.20;14.10;;;;;;;2.37;72.85;101374.13;5005666;28;20045;-68
2020/12/03 09:12:09;;;;;;;;;;;;;;;2.29;73.21;101394.63;5012500;28;20030;-69
2020/12/03 09:14:35;;;;;;;20.47;13.37;;;;;;;2.45;72.43;101384.06;5011940;28;19909;-66
2020/12/03 09:17:08;;;;;;;19.43;13.30;;;;;;;2.52;72.63;101379.63;5012097;28;20036;-69
2020/12/03 09:19:33;;;;;;;21.43;13.73;;;;;;;2.53;71.37;101342.25;5012206;28;20105;-68
2020/12/03 09:22:00;;;;;;;23.17;15.57;;;;;;;2.91;72.01;101377.69;5011889;28;20036;-67
2020/12/03 09:24:27;;;;;;;22.37;14.57;;;;;;;2.98;70.64;101380.00;5011906;28;20030;-67
2020/12/03 09:26:57;;;;;;;21.03;13.87;;;;;;;3.08;70.56;101372.31;5011904;28;20026;-73
2020/12/03 09:29:22;;;;;;;17.00;11.57;;;;;;;3.19;69.45;101356.97;5010035;28;20060;-67
2020/12/03 09:31:56;;;;;;;17.80;12.17;;;;;;;3.29;69.22;101363.72;5012022;28;20474;-67
2020/12/03 09:34:22;;;;;;;20.77;13.47;;;;;;;3.13;69.66;101325.88;5012007;28;20030;-68
2020/12/03 09:36:48;;;;;;;16.47;12.23;;;;;;;3.27;68.94;101321.91;5011737;28;20034;-70
2020/12/03 09:39:13;;;;;;;16.27;11.30;;;;;;;3.51;67.81;101344.25;5011703;28;20160;-66
2020/12/03 09:41:42;;;;;;;15.53;10.93;;;;;;;3.62;66.94;101327.22;5011653;28;20120;-70
2020/12/03 09:44:13;;;;;;;19.60;12.90;;;;;;;3.69;68.24;101324.38;5011988;28;20034;-68
2020/12/03 09:46:42;;;;;;;18.37;12.43;;;;;;;3.80;69.49;101321.78;5011921;28;20486;-67
2020/12/03 09:49:11;;;;;;;23.47;15.80;;;;;;;3.82;68.75;101320.25;5011728;28;20413;-72
2020/12/03 09:51:37;;;;;;;26.08;15.27;;;;;;;3.77;68.88;101319.00;5011635;28;20057;-68
2020/12/03 09:54:03;;;;;;;18.63;11.83;;;;;;;3.58;68.82;101316.63;5011559;28;20486;-71
2020/12/03 09:56:33;;;;;;;22.67;13.13;;;;;;;3.59;69.73;101295.44;5011354;28;20021;-68
2020/12/03 09:58:58;;;;;;;21.00;14.10;;;;;;;3.59;69.68;101304.03;5011560;28;20025;-67
2020/12/03 10:02:04;;;;;;;17.90;12.27;;;;;;;3.75;69.30;101303.56;5011555;28;20030;-68
2020/12/03 10:04:47;;;;;;;17.23;11.43;;;;;;;3.48;69.12;101303.16;4989677;28;20498;-70
2020/12/03 10:07:22;;;;;;;16.63;11.10;;;;;;;3.46;70.37;101307.25;4989551;28;20144;-68
2020/12/03 10:10:14;;;;;;;16.43;10.80;;;;;;;3.47;69.37;101300.50;4989749;28;20046;-70
2020/12/03 10:13:07;;;;;;;19.63;11.90;;;;;;;3.61;68.97;101296.47;4973477;28;20042;-68
2020/12/03 10:15:32;;;;;;;16.60;11.63;;;;;;;3.70;68.02;101287.88;4989620;28;20125;-68
2020/12/03 10:18:12;;;;;;;16.20;11.60;;;;;;;3.67;68.30;101281.63;4991310;28;20122;-68
2020/12/03 10:20:38;;;;;;;18.77;12.43;;;;;;;3.75;67.27;101284.78;4993450;28;20513;-66
2020/12/03 10:23:14;;;;;;;16.40;11.97;;;;;;;3.92;68.21;101280.97;4993358;28;20042;-70
2020/12/03 10:25:53;;;;;;;14.73;10.63;;;;;;;3.70;68.67;101269.09;4993184;28;20042;-67
2020/12/03 10:28:29;;;;;;;16.77;11.63;;;;;;;3.77;69.58;101293.47;4993332;28;20046;-68
2020/12/03 10:30:56;;;;;;;16.53;12.47;;;;;;;3.62;68.53;101283.81;4993137;28;20535;-66
2020/12/03 10:33:26;;;;;;;38.50;34.53;;;;;;;3.80;68.31;101271.59;4993112;28;20034;-69
2020/12/03 10:35:57;;;;;;;22.87;13.60;;;;;;;3.93;67.96;101283.66;4993102;28;20034;-70
2020/12/03 10:38:47;;;;;;;21.20;14.17;;;;;;;4.01;68.96;101276.56;4988469;28;20118;-72
2020/12/03 10:41:14;;;;;;;15.00;10.13;;;;;;;4.08;66.88;101277.94;5003565;28;20045;-70
2020/12/03 10:43:45;;;;;;;18.13;13.53;;;;;;;4.25;67.08;101271.53;5023523;28;20130;-70
2020/12/03 10:46:17;;;;;;;17.27;11.50;;;;;;;4.32;66.50;101259.31;5014226;28;20021;-71
2020/12/03 10:48:48;;;;;;;21.83;16.13;;;;;;;4.40;66.96;101256.44;5039851;28;20489;-71
2020/12/03 10:51:14;;;;;;;17.07;13.03;;;;;;;4.53;66.90;101264.25;5014193;28;20073;-70
2020/12/03 10:53:46;;;;;;;20.60;12.40;;;;;;;4.44;66.20;101254.25;5032233;28;20029;-70
2020/12/03 10:56:12;;;;;;;22.10;13.27;;;;;;;4.50;67.11;101270.03;5029863;28;20033;-70
2020/12/03 10:59:40;;;;;;;24.20;15.93;;;;;;;4.47;67.26;101246.78;5032183;28;20065;-71
2020/12/03 11:02:17;;;;;;;17.23;12.17;;;;;;;4.53;66.23;101243.78;5032015;28;20037;-70
2020/12/03 11:04:42;;;;;;;19.80;12.68;;;;;;;4.59;65.90;101240.81;5062987;28;20030;-73
2020/12/03 11:07:11;;;;;;;18.43;12.73;;;;;;;4.71;66.89;101239.16;5047651;28;20060;-74
2020/12/03 11:09:39;;;;;;;14.90;11.52;;;;;;;4.66;65.53;101235.34;5033219;28;20036;-73
2020/12/03 11:12:09;;;;;;;16.00;12.40;;;;;;;4.34;67.56;101224.53;5048471;28;20044;-71
2020/12/03 11:14:35;;;;;;;16.83;12.30;;;;;;;4.15;69.31;101245.28;5030855;28;20044;-77
2020/12/03 11:17:08;;;;;;;19.20;11.47;;;;;;;4.10;69.08;101245.69;5021607;28;20038;-76
2020/12/03 11:19:35;;;;;;;17.10;12.37;;;;;;;4.18;67.08;101245.50;5013534;28;20022;-72
2020/12/03 11:22:33;;;;;;;37.93;21.63;;;;;;;4.41;67.54;101248.00;5032073;28;20039;-74
2020/12/03 11:25:04;;;;;;;19.40;13.40;;;;;;;4.44;66.60;101243.13;5028064;28;20544;-73
2020/12/03 11:27:30;;;;;;;20.27;13.15;;;;;;;4.52;67.53;101244.56;5028497;28;20038;-74
2020/12/03 11:29:55;;;;;;;17.60;12.70;;;;;;;4.54;66.26;101243.03;5028198;28;20175;-76
2020/12/03 11:32:25;;;;;;;17.57;11.67;;;;;;;4.46;66.25;101213.44;5026133;28;20128;-74
2020/12/03 11:34:51;;;;;;;15.80;11.57;;;;;;;4.56;66.64;101233.81;5011005;28;20539;-74
2020/12/03 11:37:24;;;;;;;15.00;10.07;;;;;;;4.60;67.25;101222.09;5027642;28;20041;-70
2020/12/03 11:40:02;;;;;;;22.17;16.23;;;;;;;4.68;67.91;101214.22;5027170;28;20038;-69
2020/12/03 11:42:46;;;;;;;24.48;15.40;;;;;;;4.55;67.97;101216.69;5003128;28;20038;-68